sensor_id;sensor_type;location;lat;lon;timestamp;pressure;altitude;pressure_sealevel;temperature;humidity
70916;BME280;58557;50.982;-3.222;2023-05-23T00:00:36;101909.49;;;18.05;41.60
70916;BME280;58557;50.982;-3.222;2023-05-23T00:03:02;101914.96;;;17.82;42.55
70916;BME280;58557;50.982;-3.222;2023-05-23T00:05:27;101914.90;;;18.10;42.89
70916;BME280;58557;50.982;-3.222;2023-05-23T00:07:56;101916.61;;;18.19;42.06
70916;BME280;58557;50.982;-3.222;2023-05-23T00:10:19;101910.54;;;17.72;42.39
70916;BME280;58557;50.982;-3.222;2023-05-23T00:12:44;101907.53;;;17.50;42.71
70916;BME280;58557;50.982;-3.222;2023-05-23T00:15:09;101905.56;;;17.88;42.09
70916;BME280;58557;50.982;-3.222;2023-05-23T00:17:35;101910.99;;;17.37;42.45
70916;BME280;58557;50.982;-3.222;2023-05-23T00:20:01;101912.74;;;17.04;43.39
70916;BME280;58557;50.982;-3.222;2023-05-23T00:22:26;101911.98;;;17.29;43.22
70916;BME280;58557;50.982;-3.222;2023-05-23T00:24:52;101914.46;;;15.77;45.53
70916;BME280;58557;50.982;-3.222;2023-05-23T00:27:18;101916.18;;;15.51;46.54
70916;BME280;58557;50.982;-3.222;2023-05-23T00:29:44;101916.15;;;15.01;47.60
70916;BME280;58557;50.982;-3.222;2023-05-23T00:32:09;101911.56;;;14.57;48.43
70916;BME280;58557;50.982;-3.222;2023-05-23T00:34:35;101910.04;;;14.48;49.07
70916;BME280;58557;50.982;-3.222;2023-05-23T00:37:01;101910.86;;;14.56;49.88
70916;BME280;58557;50.982;-3.222;2023-05-23T00:39:26;101909.92;;;13.36;53.51
70916;BME280;58557;50.982;-3.222;2023-05-23T00:41:52;101909.43;;;13.26;54.12
70916;BME280;58557;50.982;-3.222;2023-05-23T00:44:18;101908.48;;;13.96;51.58
70916;BME280;58557;50.982;-3.222;2023-05-23T00:46:45;101911.31;;;14.20;50.68
70916;BME280;58557;50.982;-3.222;2023-05-23T00:49:09;101911.61;;;14.10;51.10
70916;BME280;58557;50.982;-3.222;2023-05-23T00:51:35;101917.92;;;14.82;48.91
70916;BME280;58557;50.982;-3.222;2023-05-23T00:54:00;101923.81;;;14.57;49.55
70916;BME280;58557;50.982;-3.222;2023-05-23T00:56:26;101923.64;;;14.36;49.84
70916;BME280;58557;50.982;-3.222;2023-05-23T00:58:52;101917.46;;;13.57;52.22
70916;BME280;58557;50.982;-3.222;2023-05-23T01:01:17;101919.25;;;14.41;50.46
70916;BME280;58557;50.982;-3.222;2023-05-23T01:03:43;101923.52;;;15.23;48.49
70916;BME280;58557;50.982;-3.222;2023-05-23T01:06:09;101926.01;;;15.15;48.66
70916;BME280;58557;50.982;-3.222;2023-05-23T01:08:34;101925.52;;;14.76;48.73
70916;BME280;58557;50.982;-3.222;2023-05-23T01:11:05;101922.50;;;15.45;46.23
70916;BME280;58557;50.982;-3.222;2023-05-23T01:13:30;101921.39;;;15.06;47.45
70916;BME280;58557;50.982;-3.222;2023-05-23T01:15:56;101921.61;;;14.82;48.34
70916;BME280;58557;50.982;-3.222;2023-05-23T01:18:20;101925.14;;;15.07;48.35
70916;BME280;58557;50.982;-3.222;2023-05-23T01:20:48;101920.63;;;14.40;49.90
70916;BME280;58557;50.982;-3.222;2023-05-23T01:23:24;101917.96;;;13.93;51.42
70916;BME280;58557;50.982;-3.222;2023-05-23T01:25:46;101910.86;;;13.30;52.57
70916;BME280;58557;50.982;-3.222;2023-05-23T01:28:00;101905.78;;;13.56;53.39
70916;BME280;58557;50.982;-3.222;2023-05-23T01:30:24;101907.65;;;13.42;53.34
70916;BME280;58557;50.982;-3.222;2023-05-23T01:32:53;101909.24;;;13.31;53.02
70916;BME280;58557;50.982;-3.222;2023-05-23T01:35:20;101907.76;;;13.56;52.20
70916;BME280;58557;50.982;-3.222;2023-05-23T01:37:43;101906.37;;;14.04;50.86
70916;BME280;58557;50.982;-3.222;2023-05-23T01:40:07;101913.07;;;14.10;51.08
70916;BME280;58557;50.982;-3.222;2023-05-23T01:42:33;101923.09;;;14.72;48.60
70916;BME280;58557;50.982;-3.222;2023-05-23T01:44:59;101927.15;;;15.34;46.55
70916;BME280;58557;50.982;-3.222;2023-05-23T01:47:25;101925.49;;;14.93;46.26
70916;BME280;58557;50.982;-3.222;2023-05-23T01:49:51;101929.08;;;15.82;45.04
70916;BME280;58557;50.982;-3.222;2023-05-23T01:52:16;101924.28;;;16.12;43.52
70916;BME280;58557;50.982;-3.222;2023-05-23T01:54:42;101924.40;;;16.42;42.67
70916;BME280;58557;50.982;-3.222;2023-05-23T01:57:08;101926.21;;;16.93;42.43
70916;BME280;58557;50.982;-3.222;2023-05-23T01:59:33;101923.49;;;16.66;42.81
70916;BME280;58557;50.982;-3.222;2023-05-23T02:01:59;101923.51;;;16.50;42.95
70916;BME280;58557;50.982;-3.222;2023-05-23T02:04:24;101936.27;;;15.99;44.57
70916;BME280;58557;50.982;-3.222;2023-05-23T02:06:50;101934.49;;;16.45;43.15
70916;BME280;58557;50.982;-3.222;2023-05-23T02:09:16;101935.50;;;16.16;43.16
70916;BME280;58557;50.982;-3.222;2023-05-23T02:11:41;101938.04;;;16.09;43.18
70916;BME280;58557;50.982;-3.222;2023-05-23T02:14:09;101940.63;;;16.12;42.46
70916;BME280;58557;50.982;-3.222;2023-05-23T02:16:33;101945.35;;;16.01;42.25
70916;BME280;58557;50.982;-3.222;2023-05-23T02:18:58;101946.90;;;16.39;42.12
70916;BME280;58557;50.982;-3.222;2023-05-23T02:21:24;101944.41;;;17.37;40.29
70916;BME280;58557;50.982;-3.222;2023-05-23T02:23:50;101947.04;;;17.43;40.50
70916;BME280;58557;50.982;-3.222;2023-05-23T02:26:15;101946.07;;;17.95;39.88
70916;BME280;58557;50.982;-3.222;2023-05-23T02:28:41;101948.57;;;17.09;40.17
70916;BME280;58557;50.982;-3.222;2023-05-23T02:31:07;101953.21;;;16.99;41.43
70916;BME280;58557;50.982;-3.222;2023-05-23T02:33:32;101960.30;;;17.13;40.17
70916;BME280;58557;50.982;-3.222;2023-05-23T02:35:58;101964.00;;;17.56;39.88
70916;BME280;58557;50.982;-3.222;2023-05-23T02:38:24;101966.83;;;17.08;41.07
70916;BME280;58557;50.982;-3.222;2023-05-23T02:40:49;101965.06;;;16.91;40.85
70916;BME280;58557;50.982;-3.222;2023-05-23T02:43:15;101961.91;;;17.10;41.00
70916;BME280;58557;50.982;-3.222;2023-05-23T02:45:41;101955.82;;;17.94;39.54
70916;BME280;58557;50.982;-3.222;2023-05-23T02:48:07;101958.71;;;17.46;39.81
70916;BME280;58557;50.982;-3.222;2023-05-23T02:50:32;101958.22;;;16.94;40.20
70916;BME280;58557;50.982;-3.222;2023-05-23T02:52:58;101953.53;;;17.09;40.24
70916;BME280;58557;50.982;-3.222;2023-05-23T02:55:23;101955.02;;;16.47;40.96
70916;BME280;58557;50.982;-3.222;2023-05-23T02:57:49;101956.75;;;17.19;39.99
70916;BME280;58557;50.982;-3.222;2023-05-23T03:00:14;101964.68;;;16.32;41.28
70916;BME280;58557;50.982;-3.222;2023-05-23T03:02:40;101964.94;;;16.53;41.81
70916;BME280;58557;50.982;-3.222;2023-05-23T03:05:06;101967.53;;;17.47;39.82
70916;BME280;58557;50.982;-3.222;2023-05-23T03:07:31;101964.66;;;16.86;40.60
70916;BME280;58557;50.982;-3.222;2023-05-23T03:09:56;101968.01;;;16.89;40.71
70916;BME280;58557;50.982;-3.222;2023-05-23T03:12:22;101970.31;;;17.04;40.64
70916;BME280;58557;50.982;-3.222;2023-05-23T03:14:47;101971.90;;;16.56;41.01
70916;BME280;58557;50.982;-3.222;2023-05-23T03:17:13;101973.03;;;16.29;41.32
70916;BME280;58557;50.982;-3.222;2023-05-23T03:19:38;101971.34;;;16.07;41.79
70916;BME280;58557;50.982;-3.222;2023-05-23T03:22:04;101969.31;;;15.86;41.54
70916;BME280;58557;50.982;-3.222;2023-05-23T03:24:29;101970.07;;;16.25;41.24
70916;BME280;58557;50.982;-3.222;2023-05-23T03:26:55;101970.49;;;16.38;41.60
70916;BME280;58557;50.982;-3.222;2023-05-23T03:29:19;101967.12;;;16.03;41.73
70916;BME280;58557;50.982;-3.222;2023-05-23T03:31:45;101969.62;;;16.88;41.10
70916;BME280;58557;50.982;-3.222;2023-05-23T03:34:10;101962.34;;;16.17;42.20
70916;BME280;58557;50.982;-3.222;2023-05-23T03:36:36;101961.12;;;15.82;42.61
70916;BME280;58557;50.982;-3.222;2023-05-23T03:39:01;101963.92;;;15.94;41.38
70916;BME280;58557;50.982;-3.222;2023-05-23T03:41:27;101963.68;;;16.50;41.80
70916;BME280;58557;50.982;-3.222;2023-05-23T03:43:53;101960.65;;;15.94;41.36
70916;BME280;58557;50.982;-3.222;2023-05-23T03:46:18;101963.55;;;16.45;40.40
70916;BME280;58557;50.982;-3.222;2023-05-23T03:48:44;101960.61;;;15.96;40.98
70916;BME280;58557;50.982;-3.222;2023-05-23T03:51:09;101962.56;;;16.44;40.27
70916;BME280;58557;50.982;-3.222;2023-05-23T03:53:34;101964.02;;;16.56;40.50
70916;BME280;58557;50.982;-3.222;2023-05-23T03:56:00;101965.77;;;16.34;40.64
70916;BME280;58557;50.982;-3.222;2023-05-23T03:58:25;101969.18;;;16.55;40.01
70916;BME280;58557;50.982;-3.222;2023-05-23T04:00:51;101966.59;;;16.50;40.17
70916;BME280;58557;50.982;-3.222;2023-05-23T04:03:16;101963.44;;;16.25;41.16
70916;BME280;58557;50.982;-3.222;2023-05-23T04:05:41;101968.34;;;16.78;40.01
70916;BME280;58557;50.982;-3.222;2023-05-23T04:08:07;101963.78;;;16.30;40.93
70916;BME280;58557;50.982;-3.222;2023-05-23T04:10:33;101962.30;;;16.26;40.83
70916;BME280;58557;50.982;-3.222;2023-05-23T04:12:59;101967.41;;;15.77;41.36
70916;BME280;58557;50.982;-3.222;2023-05-23T04:15:24;101963.58;;;16.56;40.06
70916;BME280;58557;50.982;-3.222;2023-05-23T04:17:50;101964.58;;;16.10;40.24
70916;BME280;58557;50.982;-3.222;2023-05-23T04:20:15;101964.37;;;16.81;39.91
70916;BME280;58557;50.982;-3.222;2023-05-23T04:22:41;101972.56;;;15.00;42.92
70916;BME280;58557;50.982;-3.222;2023-05-23T04:25:07;101971.06;;;14.83;43.21
70916;BME280;58557;50.982;-3.222;2023-05-23T04:27:32;101973.51;;;14.61;44.43
70916;BME280;58557;50.982;-3.222;2023-05-23T04:29:57;101973.15;;;14.73;45.42
70916;BME280;58557;50.982;-3.222;2023-05-23T04:32:23;101978.41;;;14.95;44.01
70916;BME280;58557;50.982;-3.222;2023-05-23T04:34:48;101984.97;;;15.29;43.93
70916;BME280;58557;50.982;-3.222;2023-05-23T04:37:13;101982.59;;;15.48;43.27
70916;BME280;58557;50.982;-3.222;2023-05-23T04:39:39;101983.77;;;15.37;43.58
70916;BME280;58557;50.982;-3.222;2023-05-23T04:42:04;101985.68;;;15.81;43.39
70916;BME280;58557;50.982;-3.222;2023-05-23T04:44:30;101990.31;;;15.82;42.71
70916;BME280;58557;50.982;-3.222;2023-05-23T04:46:55;101986.51;;;16.55;41.59
70916;BME280;58557;50.982;-3.222;2023-05-23T04:49:21;101991.75;;;16.64;41.13
70916;BME280;58557;50.982;-3.222;2023-05-23T04:51:46;101992.22;;;16.45;40.71
70916;BME280;58557;50.982;-3.222;2023-05-23T04:54:12;101996.99;;;16.87;39.94
70916;BME280;58557;50.982;-3.222;2023-05-23T04:56:38;101996.02;;;16.12;40.96
70916;BME280;58557;50.982;-3.222;2023-05-23T04:59:03;101997.28;;;16.35;41.11
70916;BME280;58557;50.982;-3.222;2023-05-23T05:01:29;102000.46;;;15.92;41.86
70916;BME280;58557;50.982;-3.222;2023-05-23T05:03:54;102001.31;;;16.38;41.25
70916;BME280;58557;50.982;-3.222;2023-05-23T05:06:19;102001.53;;;16.77;41.42
70916;BME280;58557;50.982;-3.222;2023-05-23T05:08:44;102005.03;;;17.02;41.00
70916;BME280;58557;50.982;-3.222;2023-05-23T05:11:10;102007.69;;;16.00;41.22
70916;BME280;58557;50.982;-3.222;2023-05-23T05:13:35;102007.14;;;16.82;40.46
70916;BME280;58557;50.982;-3.222;2023-05-23T05:16:01;102008.36;;;16.20;41.03
70916;BME280;58557;50.982;-3.222;2023-05-23T05:18:26;102007.94;;;17.09;40.48
70916;BME280;58557;50.982;-3.222;2023-05-23T05:20:52;102010.96;;;16.72;40.71
70916;BME280;58557;50.982;-3.222;2023-05-23T05:23:17;102009.63;;;16.39;41.11
70916;BME280;58557;50.982;-3.222;2023-05-23T05:25:42;102011.97;;;16.81;41.07
70916;BME280;58557;50.982;-3.222;2023-05-23T05:28:08;102011.32;;;16.71;41.02
70916;BME280;58557;50.982;-3.222;2023-05-23T05:30:33;102013.69;;;16.76;40.31
70916;BME280;58557;50.982;-3.222;2023-05-23T05:32:58;102014.17;;;16.84;40.59
70916;BME280;58557;50.982;-3.222;2023-05-23T05:35:24;102017.26;;;16.81;40.30
70916;BME280;58557;50.982;-3.222;2023-05-23T05:37:49;102017.27;;;17.46;39.19
70916;BME280;58557;50.982;-3.222;2023-05-23T05:40:14;102016.08;;;17.82;39.42
70916;BME280;58557;50.982;-3.222;2023-05-23T05:42:40;102016.02;;;17.99;38.85
70916;BME280;58557;50.982;-3.222;2023-05-23T05:45:06;102014.18;;;17.06;40.29
70916;BME280;58557;50.982;-3.222;2023-05-23T05:47:31;102014.49;;;16.94;41.78
70916;BME280;58557;50.982;-3.222;2023-05-23T05:49:56;102016.02;;;17.17;42.12
70916;BME280;58557;50.982;-3.222;2023-05-23T05:52:22;102016.28;;;17.16;42.03
70916;BME280;58557;50.982;-3.222;2023-05-23T05:54:47;102018.21;;;17.59;41.97
70916;BME280;58557;50.982;-3.222;2023-05-23T05:57:13;102019.84;;;17.72;40.95
70916;BME280;58557;50.982;-3.222;2023-05-23T05:59:38;102020.29;;;17.57;40.37
70916;BME280;58557;50.982;-3.222;2023-05-23T06:02:04;102020.20;;;17.26;40.81
70916;BME280;58557;50.982;-3.222;2023-05-23T06:04:30;102018.90;;;18.33;40.12
70916;BME280;58557;50.982;-3.222;2023-05-23T06:06:55;102020.44;;;16.42;42.51
70916;BME280;58557;50.982;-3.222;2023-05-23T06:09:21;102026.98;;;17.10;42.00
70916;BME280;58557;50.982;-3.222;2023-05-23T06:11:47;102027.25;;;17.42;41.26
70916;BME280;58557;50.982;-3.222;2023-05-23T06:14:12;102031.24;;;16.53;43.43
70916;BME280;58557;50.982;-3.222;2023-05-23T06:16:38;102028.52;;;17.46;42.13
70916;BME280;58557;50.982;-3.222;2023-05-23T06:19:04;102035.30;;;15.93;44.94
70916;BME280;58557;50.982;-3.222;2023-05-23T06:21:29;102037.13;;;16.06;45.74
70916;BME280;58557;50.982;-3.222;2023-05-23T06:23:54;102036.40;;;15.66;46.80
70916;BME280;58557;50.982;-3.222;2023-05-23T06:26:20;102030.39;;;15.13;48.86
70916;BME280;58557;50.982;-3.222;2023-05-23T06:28:46;102031.40;;;16.12;47.07
70916;BME280;58557;50.982;-3.222;2023-05-23T06:31:12;102028.80;;;16.23;46.43
70916;BME280;58557;50.982;-3.222;2023-05-23T06:33:37;102028.02;;;15.64;48.29
70916;BME280;58557;50.982;-3.222;2023-05-23T06:36:03;102022.74;;;15.49;48.79
70916;BME280;58557;50.982;-3.222;2023-05-23T06:38:30;102019.07;;;16.15;47.29
70916;BME280;58557;50.982;-3.222;2023-05-23T06:40:54;102010.37;;;16.82;45.38
70916;BME280;58557;50.982;-3.222;2023-05-23T06:43:20;102014.14;;;16.62;45.92
70916;BME280;58557;50.982;-3.222;2023-05-23T06:45:46;102009.34;;;16.56;45.85
70916;BME280;58557;50.982;-3.222;2023-05-23T06:48:12;102004.51;;;17.34;46.03
70916;BME280;58557;50.982;-3.222;2023-05-23T06:50:37;101998.86;;;17.89;44.05
70916;BME280;58557;50.982;-3.222;2023-05-23T06:53:03;101995.64;;;18.08;42.68
70916;BME280;58557;50.982;-3.222;2023-05-23T06:55:29;101990.62;;;17.67;43.60
70916;BME280;58557;50.982;-3.222;2023-05-23T06:57:54;101992.90;;;17.64;42.31
70916;BME280;58557;50.982;-3.222;2023-05-23T07:00:20;101999.36;;;17.99;41.53
70916;BME280;58557;50.982;-3.222;2023-05-23T07:02:46;102001.51;;;17.20;43.57
70916;BME280;58557;50.982;-3.222;2023-05-23T07:05:11;102004.96;;;17.61;42.82
70916;BME280;58557;50.982;-3.222;2023-05-23T07:07:36;102008.78;;;17.49;43.17
70916;BME280;58557;50.982;-3.222;2023-05-23T07:10:02;102008.98;;;17.46;43.93
70916;BME280;58557;50.982;-3.222;2023-05-23T07:12:28;102012.71;;;17.96;43.41
70916;BME280;58557;50.982;-3.222;2023-05-23T07:14:53;102011.44;;;17.61;43.52
70916;BME280;58557;50.982;-3.222;2023-05-23T07:17:18;102011.68;;;17.58;43.25
70916;BME280;58557;50.982;-3.222;2023-05-23T07:19:44;102008.54;;;18.11;43.79
70916;BME280;58557;50.982;-3.222;2023-05-23T07:22:10;102006.46;;;17.66;41.65
70916;BME280;58557;50.982;-3.222;2023-05-23T07:24:35;102005.99;;;17.17;41.58
70916;BME280;58557;50.982;-3.222;2023-05-23T07:27:01;102004.29;;;17.61;41.44
70916;BME280;58557;50.982;-3.222;2023-05-23T07:29:27;102005.79;;;18.18;41.24
70916;BME280;58557;50.982;-3.222;2023-05-23T07:31:53;102008.30;;;18.41;40.89
70916;BME280;58557;50.982;-3.222;2023-05-23T07:34:19;102008.35;;;18.54;39.32
70916;BME280;58557;50.982;-3.222;2023-05-23T07:36:44;102008.90;;;18.49;39.96
70916;BME280;58557;50.982;-3.222;2023-05-23T07:39:09;102007.68;;;19.14;38.27
70916;BME280;58557;50.982;-3.222;2023-05-23T07:41:35;102013.27;;;18.78;38.31
70916;BME280;58557;50.982;-3.222;2023-05-23T07:44:00;102017.45;;;19.01;38.59
70916;BME280;58557;50.982;-3.222;2023-05-23T07:46:26;102020.01;;;18.35;38.23
70916;BME280;58557;50.982;-3.222;2023-05-23T07:48:52;102022.00;;;18.42;38.05
70916;BME280;58557;50.982;-3.222;2023-05-23T07:51:17;102022.48;;;18.81;37.50
70916;BME280;58557;50.982;-3.222;2023-05-23T07:53:42;102023.02;;;17.89;38.88
70916;BME280;58557;50.982;-3.222;2023-05-23T07:56:08;102025.84;;;17.83;39.14
70916;BME280;58557;50.982;-3.222;2023-05-23T07:58:33;102024.57;;;17.26;39.92
70916;BME280;58557;50.982;-3.222;2023-05-23T08:00:59;102024.64;;;17.13;40.57
70916;BME280;58557;50.982;-3.222;2023-05-23T08:03:24;102028.46;;;16.41;41.22
70916;BME280;58557;50.982;-3.222;2023-05-23T08:05:50;102030.22;;;16.20;42.38
70916;BME280;58557;50.982;-3.222;2023-05-23T08:08:15;102033.13;;;16.72;41.76
70916;BME280;58557;50.982;-3.222;2023-05-23T08:10:40;102032.14;;;17.19;42.23
70916;BME280;58557;50.982;-3.222;2023-05-23T08:13:05;102034.52;;;17.13;40.93
70916;BME280;58557;50.982;-3.222;2023-05-23T08:15:31;102036.69;;;17.18;40.08
70916;BME280;58557;50.982;-3.222;2023-05-23T08:17:57;102041.06;;;16.81;41.61
70916;BME280;58557;50.982;-3.222;2023-05-23T08:20:23;102039.18;;;16.20;42.52
70916;BME280;58557;50.982;-3.222;2023-05-23T08:22:48;102047.21;;;16.90;42.74
70916;BME280;58557;50.982;-3.222;2023-05-23T08:25:13;102044.64;;;17.28;41.69
70916;BME280;58557;50.982;-3.222;2023-05-23T08:27:39;102045.64;;;16.60;42.45
70916;BME280;58557;50.982;-3.222;2023-05-23T08:30:06;102043.07;;;16.98;42.48
70916;BME280;58557;50.982;-3.222;2023-05-23T08:32:30;102040.38;;;17.25;42.32
70916;BME280;58557;50.982;-3.222;2023-05-23T08:34:55;102037.96;;;16.97;42.27
70916;BME280;58557;50.982;-3.222;2023-05-23T08:37:21;102041.68;;;15.64;43.59
70916;BME280;58557;50.982;-3.222;2023-05-23T08:39:47;102038.92;;;16.55;42.46
70916;BME280;58557;50.982;-3.222;2023-05-23T08:42:12;102037.91;;;16.71;42.37
70916;BME280;58557;50.982;-3.222;2023-05-23T08:44:38;102034.75;;;17.29;41.46
70916;BME280;58557;50.982;-3.222;2023-05-23T08:47:03;102031.91;;;16.97;41.70
70916;BME280;58557;50.982;-3.222;2023-05-23T08:49:28;102037.02;;;17.04;42.13
70916;BME280;58557;50.982;-3.222;2023-05-23T08:51:55;102037.46;;;17.57;41.83
70916;BME280;58557;50.982;-3.222;2023-05-23T08:54:20;102032.52;;;16.96;42.24
70916;BME280;58557;50.982;-3.222;2023-05-23T08:56:45;102036.33;;;17.46;41.74
70916;BME280;58557;50.982;-3.222;2023-05-23T08:59:12;102036.31;;;17.32;41.21
70916;BME280;58557;50.982;-3.222;2023-05-23T09:01:37;102032.22;;;17.83;40.09
70916;BME280;58557;50.982;-3.222;2023-05-23T09:04:05;102033.24;;;17.36;42.22
70916;BME280;58557;50.982;-3.222;2023-05-23T09:06:28;102033.57;;;17.17;42.05
70916;BME280;58557;50.982;-3.222;2023-05-23T09:08:53;102034.15;;;17.97;40.20
70916;BME280;58557;50.982;-3.222;2023-05-23T09:11:19;102036.50;;;17.97;39.97
70916;BME280;58557;50.982;-3.222;2023-05-23T09:13:44;102037.53;;;17.55;41.07
70916;BME280;58557;50.982;-3.222;2023-05-23T09:16:10;102037.47;;;17.16;41.60
70916;BME280;58557;50.982;-3.222;2023-05-23T09:18:38;102040.25;;;16.33;44.29
70916;BME280;58557;50.982;-3.222;2023-05-23T09:21:01;102040.24;;;16.47;43.11
70916;BME280;58557;50.982;-3.222;2023-05-23T09:23:29;102033.00;;;17.27;41.58
70916;BME280;58557;50.982;-3.222;2023-05-23T09:25:52;102033.00;;;18.10;40.71
70916;BME280;58557;50.982;-3.222;2023-05-23T09:28:18;102027.54;;;17.17;41.02
70916;BME280;58557;50.982;-3.222;2023-05-23T09:30:43;102025.05;;;18.92;39.17
70916;BME280;58557;50.982;-3.222;2023-05-23T09:33:09;102024.13;;;18.55;39.28
70916;BME280;58557;50.982;-3.222;2023-05-23T09:35:34;102026.43;;;18.37;39.69
70916;BME280;58557;50.982;-3.222;2023-05-23T09:38:00;102021.64;;;17.53;41.03
70916;BME280;58557;50.982;-3.222;2023-05-23T09:40:29;102020.27;;;17.99;40.66
70916;BME280;58557;50.982;-3.222;2023-05-23T09:42:51;102019.98;;;17.88;41.66
70916;BME280;58557;50.982;-3.222;2023-05-23T09:45:17;102023.45;;;17.73;41.13
70916;BME280;58557;50.982;-3.222;2023-05-23T09:47:48;102027.97;;;17.38;41.67
70916;BME280;58557;50.982;-3.222;2023-05-23T09:50:08;102030.27;;;18.56;39.52
70916;BME280;58557;50.982;-3.222;2023-05-23T09:52:35;102034.96;;;18.94;39.17
70916;BME280;58557;50.982;-3.222;2023-05-23T09:54:58;102037.92;;;18.80;38.81
70916;BME280;58557;50.982;-3.222;2023-05-23T09:57:24;102037.28;;;18.18;39.93
70916;BME280;58557;50.982;-3.222;2023-05-23T09:59:53;102034.00;;;18.13;40.13
70916;BME280;58557;50.982;-3.222;2023-05-23T10:02:16;102037.91;;;18.50;40.26
70916;BME280;58557;50.982;-3.222;2023-05-23T10:04:41;102038.16;;;18.47;39.65
70916;BME280;58557;50.982;-3.222;2023-05-23T10:07:12;102035.63;;;19.52;39.00
70916;BME280;58557;50.982;-3.222;2023-05-23T10:09:34;102037.28;;;19.91;38.20
70916;BME280;58557;50.982;-3.222;2023-05-23T10:14:22;102035.33;;;18.75;38.92
70916;BME280;58557;50.982;-3.222;2023-05-23T10:16:54;102033.97;;;18.28;39.74
70916;BME280;58557;50.982;-3.222;2023-05-23T10:19:19;102035.94;;;18.20;38.81
70916;BME280;58557;50.982;-3.222;2023-05-23T10:21:43;102033.81;;;19.22;38.63
70916;BME280;58557;50.982;-3.222;2023-05-23T10:24:04;102034.53;;;18.57;38.99
70916;BME280;58557;50.982;-3.222;2023-05-23T10:26:29;102032.22;;;18.53;39.84
70916;BME280;58557;50.982;-3.222;2023-05-23T10:28:54;102029.30;;;20.98;36.42
70916;BME280;58557;50.982;-3.222;2023-05-23T10:31:20;102029.40;;;21.26;35.17
70916;BME280;58557;50.982;-3.222;2023-05-23T10:34:02;102030.69;;;20.81;36.22
70916;BME280;58557;50.982;-3.222;2023-05-23T10:36:18;102025.95;;;21.48;35.98
70916;BME280;58557;50.982;-3.222;2023-05-23T10:38:41;102029.33;;;20.31;35.77
70916;BME280;58557;50.982;-3.222;2023-05-23T10:41:09;102025.22;;;20.01;36.46
70916;BME280;58557;50.982;-3.222;2023-05-23T10:43:31;102022.85;;;19.97;36.96
70916;BME280;58557;50.982;-3.222;2023-05-23T10:45:53;102019.40;;;21.22;34.96
70916;BME280;58557;50.982;-3.222;2023-05-23T10:48:21;102021.74;;;21.22;34.35
70916;BME280;58557;50.982;-3.222;2023-05-23T10:50:44;102022.79;;;20.95;35.33
70916;BME280;58557;50.982;-3.222;2023-05-23T10:53:15;102022.93;;;21.19;35.07
70916;BME280;58557;50.982;-3.222;2023-05-23T10:55:36;102023.81;;;20.63;35.38
70916;BME280;58557;50.982;-3.222;2023-05-23T10:58:10;102020.48;;;21.08;34.43
70916;BME280;58557;50.982;-3.222;2023-05-23T11:00:26;102017.31;;;20.28;36.03
70916;BME280;58557;50.982;-3.222;2023-05-23T11:02:54;102013.37;;;22.23;33.62
70916;BME280;58557;50.982;-3.222;2023-05-23T11:05:18;102012.53;;;22.01;33.62
70916;BME280;58557;50.982;-3.222;2023-05-23T11:07:42;102015.69;;;22.33;32.96
70916;BME280;58557;50.982;-3.222;2023-05-23T11:10:09;102017.81;;;21.58;33.89
70916;BME280;58557;50.982;-3.222;2023-05-23T11:12:38;102022.20;;;22.34;32.65
70916;BME280;58557;50.982;-3.222;2023-05-23T11:14:59;102024.75;;;21.17;34.51
70916;BME280;58557;50.982;-3.222;2023-05-23T11:17:32;102018.44;;;21.51;34.56
70916;BME280;58557;50.982;-3.222;2023-05-23T11:19:58;102023.47;;;20.46;35.11
70916;BME280;58557;50.982;-3.222;2023-05-23T11:22:16;102025.83;;;21.23;35.63
70916;BME280;58557;50.982;-3.222;2023-05-23T11:24:48;102027.51;;;21.09;36.00
70916;BME280;58557;50.982;-3.222;2023-05-23T11:27:11;102030.07;;;20.81;36.90
70916;BME280;58557;50.982;-3.222;2023-05-23T11:29:33;102027.67;;;20.83;36.16
70916;BME280;58557;50.982;-3.222;2023-05-23T11:31:58;102018.44;;;21.31;35.50
70916;BME280;58557;50.982;-3.222;2023-05-23T11:34:25;102019.51;;;22.49;33.85
70916;BME280;58557;50.982;-3.222;2023-05-23T11:36:53;102024.09;;;20.90;35.29
70916;BME280;58557;50.982;-3.222;2023-05-23T11:39:15;102024.77;;;19.85;37.41
70916;BME280;58557;50.982;-3.222;2023-05-23T11:41:41;102026.29;;;20.46;38.29
70916;BME280;58557;50.982;-3.222;2023-05-23T11:44:11;102028.39;;;21.21;35.78
70916;BME280;58557;50.982;-3.222;2023-05-23T11:46:31;102026.90;;;22.43;34.77
70916;BME280;58557;50.982;-3.222;2023-05-23T11:48:57;102033.26;;;21.21;34.63
70916;BME280;58557;50.982;-3.222;2023-05-23T11:51:22;102038.30;;;20.97;35.62
70916;BME280;58557;50.982;-3.222;2023-05-23T11:53:48;102037.75;;;20.02;36.91
70916;BME280;58557;50.982;-3.222;2023-05-23T11:56:14;102034.91;;;20.08;37.09
70916;BME280;58557;50.982;-3.222;2023-05-23T11:58:39;102034.93;;;21.42;36.48
70916;BME280;58557;50.982;-3.222;2023-05-23T12:01:06;102035.42;;;21.00;36.57
70916;BME280;58557;50.982;-3.222;2023-05-23T12:03:30;102031.11;;;21.61;36.33
70916;BME280;58557;50.982;-3.222;2023-05-23T12:05:56;102029.88;;;19.82;38.85
70916;BME280;58557;50.982;-3.222;2023-05-23T12:08:21;102028.61;;;20.32;38.74
70916;BME280;58557;50.982;-3.222;2023-05-23T12:10:51;102030.72;;;20.79;37.82
70916;BME280;58557;50.982;-3.222;2023-05-23T12:13:12;102030.49;;;20.60;37.86
70916;BME280;58557;50.982;-3.222;2023-05-23T12:15:38;102030.38;;;21.14;37.94
70916;BME280;58557;50.982;-3.222;2023-05-23T12:18:03;102027.95;;;20.66;38.31
70916;BME280;58557;50.982;-3.222;2023-05-23T12:20:28;102030.11;;;20.63;37.81
70916;BME280;58557;50.982;-3.222;2023-05-23T12:22:56;102030.45;;;21.14;37.41
70916;BME280;58557;50.982;-3.222;2023-05-23T12:25:19;102029.96;;;21.03;37.64
70916;BME280;58557;50.982;-3.222;2023-05-23T12:27:47;102027.45;;;20.81;36.94
70916;BME280;58557;50.982;-3.222;2023-05-23T12:30:13;102028.48;;;20.99;37.88
70916;BME280;58557;50.982;-3.222;2023-05-23T12:32:39;102027.07;;;21.28;37.56